createdAt,value
2023-06-17T00:00:12.583Z,3.95
2023-06-17T00:02:53.670Z,3.83
2023-06-17T00:05:35.070Z,3.83
2023-06-17T00:08:16.274Z,4.22
2023-06-17T00:10:56.061Z,4.50
2023-06-17T00:13:33.941Z,4.25
2023-06-17T00:16:11.339Z,4.00
2023-06-17T00:18:58.153Z,4.13
2023-06-17T00:21:38.132Z,3.92
2023-06-17T00:24:26.770Z,4.40
2023-06-17T00:27:08.095Z,4.15
2023-06-17T00:29:43.826Z,3.55
2023-06-17T00:32:30.381Z,3.63
2023-06-17T00:35:22.387Z,3.10
2023-06-17T00:38:01.407Z,3.92
2023-06-17T00:40:39.920Z,3.85
2023-06-17T00:43:13.334Z,3.60
2023-06-17T00:45:59.626Z,3.97
2023-06-17T00:48:42.713Z,3.58
2023-06-17T00:51:20.414Z,3.90
2023-06-17T00:54:07.284Z,3.75
2023-06-17T00:56:46.657Z,3.55
2023-06-17T00:59:30.166Z,4.28
2023-06-17T01:02:19.167Z,3.70
2023-06-17T01:04:57.105Z,3.90
2023-06-17T01:07:40.602Z,3.42
2023-06-17T01:10:35.809Z,3.92
2023-06-17T01:13:08.940Z,3.88
2023-06-17T01:15:48.733Z,3.53
2023-06-17T01:21:20.642Z,4.28
2023-06-17T01:23:58.018Z,3.90
2023-06-17T01:26:41.760Z,3.85
2023-06-17T01:29:27.342Z,4.70
2023-06-17T01:32:00.390Z,3.78
2023-06-17T01:34:46.074Z,4.32
2023-06-17T01:37:26.367Z,3.97
2023-06-17T01:40:02.316Z,4.05
2023-06-17T01:42:59.698Z,3.83
2023-06-17T01:45:42.809Z,3.70
2023-06-17T01:48:24.438Z,3.33
2023-06-17T01:51:01.066Z,3.92
2023-06-17T01:53:43.737Z,3.90
2023-06-17T01:56:18.839Z,3.97
2023-06-17T01:58:58.450Z,4.13
2023-06-17T02:01:43.130Z,3.50
2023-06-17T02:04:21.863Z,4.25
2023-06-17T02:07:05.700Z,3.78
2023-06-17T02:09:45.732Z,3.28
2023-06-17T02:12:25.186Z,3.63
2023-06-17T02:15:07.349Z,4.32
2023-06-17T02:17:44.047Z,4.20
2023-06-17T02:20:24.218Z,4.05
2023-06-17T02:23:06.151Z,4.25
2023-06-17T02:25:41.756Z,4.38
2023-06-17T02:28:26.700Z,3.92
2023-06-17T02:31:07.939Z,9.90
2023-06-17T02:33:49.991Z,4.00
2023-06-17T02:36:22.900Z,4.88
2023-06-17T02:39:01.588Z,4.43
2023-06-17T02:41:34.570Z,4.32
2023-06-17T02:44:21.066Z,4.25
2023-06-17T02:47:01.970Z,4.15
2023-06-17T02:49:45.959Z,4.47
2023-06-17T02:52:18.109Z,4.15
2023-06-17T02:54:55.431Z,4.28
2023-06-17T02:57:34.187Z,4.18
2023-06-17T03:00:14.458Z,4.18
2023-06-17T03:02:56.770Z,4.10
2023-06-17T03:05:39.080Z,3.90
2023-06-17T03:08:26.794Z,4.38
2023-06-17T03:10:58.335Z,4.22
2023-06-17T03:13:33.147Z,3.75
2023-06-17T03:16:22.819Z,4.28
2023-06-17T03:18:56.585Z,4.32
2023-06-17T03:21:32.531Z,4.05
2023-06-17T03:24:14.946Z,4.00
2023-06-17T03:26:46.400Z,4.07
2023-06-17T03:29:48.777Z,4.25
2023-06-17T03:32:28.343Z,4.03
2023-06-17T03:35:17.822Z,4.32
2023-06-17T03:37:59.311Z,4.18
2023-06-17T03:40:42.850Z,4.10
2023-06-17T03:43:21.163Z,4.13
2023-06-17T03:46:04.797Z,3.80
2023-06-17T03:48:48.788Z,4.50
2023-06-17T03:51:37.823Z,3.97
2023-06-17T03:54:18.566Z,3.97
2023-06-17T03:57:00.540Z,3.90
2023-06-17T03:59:46.543Z,4.43
2023-06-17T04:02:22.543Z,4.07
2023-06-17T04:04:56.540Z,4.43
2023-06-17T04:07:51.481Z,4.82
2023-06-17T04:10:22.815Z,4.13
2023-06-17T04:15:47.013Z,4.15
2023-06-17T04:18:19.365Z,4.28
2023-06-17T04:21:00.247Z,4.78
2023-06-17T04:23:41.105Z,4.38
2023-06-17T04:26:20.686Z,4.22
2023-06-17T04:29:02.603Z,4.25
2023-06-17T04:31:44.132Z,4.47
2023-06-17T04:34:25.307Z,4.90
2023-06-17T04:37:08.243Z,4.85
2023-06-17T04:39:50.076Z,4.30
2023-06-17T04:42:26.554Z,4.88
2023-06-17T04:45:19.609Z,4.75
2023-06-17T04:47:59.482Z,4.15
2023-06-17T04:50:33.683Z,4.72
2023-06-17T04:53:06.320Z,4.75
2023-06-17T04:55:50.296Z,4.53
2023-06-17T04:58:26.107Z,4.43
2023-06-17T05:01:18.257Z,4.55
2023-06-17T05:03:51.140Z,4.45
2023-06-17T05:06:30.658Z,5.35
2023-06-17T05:09:11.029Z,5.78
2023-06-17T05:11:55.755Z,5.38
2023-06-17T05:14:30.929Z,5.35
2023-06-17T05:17:12.569Z,6.10
2023-06-17T05:19:59.981Z,4.93
2023-06-17T05:22:39.950Z,5.72
2023-06-17T05:25:13.716Z,5.95
2023-06-17T05:27:52.694Z,5.53
2023-06-17T05:30:30.105Z,5.55
2023-06-17T05:33:13.778Z,6.00
2023-06-17T05:35:56.261Z,6.60
2023-06-17T05:38:37.815Z,7.00
2023-06-17T05:41:13.997Z,6.07
2023-06-17T05:43:54.862Z,6.10
2023-06-17T05:46:39.083Z,6.35
2023-06-17T05:49:20.795Z,6.53
2023-06-17T05:52:07.105Z,6.70
2023-06-17T05:54:40.829Z,6.13
2023-06-17T05:57:14.369Z,6.10
2023-06-17T05:59:58.837Z,6.38
2023-06-17T06:02:38.618Z,5.43
2023-06-17T06:05:17.002Z,5.35
2023-06-17T06:07:56.480Z,5.90
2023-06-17T06:10:31.243Z,5.22
2023-06-17T06:13:09.256Z,5.82
2023-06-17T06:15:54.318Z,5.35
2023-06-17T06:18:31.751Z,5.20
2023-06-17T06:21:12.535Z,5.90
2023-06-17T06:23:51.181Z,6.45
2023-06-17T06:26:25.483Z,6.55
2023-06-17T06:29:18.574Z,5.53
2023-06-17T06:32:08.913Z,5.45
2023-06-17T06:34:47.695Z,5.80
2023-06-17T06:37:18.853Z,5.80
2023-06-17T06:40:12.531Z,6.30
2023-06-17T06:42:53.902Z,5.65
2023-06-17T06:45:41.744Z,6.00
2023-06-17T06:48:21.425Z,6.63
2023-06-17T06:51:00.927Z,5.18
2023-06-17T06:53:42.852Z,5.85
2023-06-17T06:56:19.463Z,5.72
2023-06-17T06:59:05.145Z,5.35
2023-06-17T07:01:44.925Z,5.85
2023-06-17T07:04:19.667Z,5.85
2023-06-17T07:07:13.038Z,6.25
2023-06-17T07:09:57.302Z,5.50
2023-06-17T07:12:45.001Z,5.75
2023-06-17T07:15:35.136Z,5.32
2023-06-17T07:18:16.165Z,5.53
2023-06-17T07:20:59.628Z,6.03
2023-06-17T07:23:42.595Z,5.43
2023-06-17T07:26:17.590Z,5.95
2023-06-17T07:28:50.643Z,5.28
2023-06-17T07:31:25.512Z,5.07
2023-06-17T07:34:03.029Z,5.45
2023-06-17T07:36:39.781Z,6.03
2023-06-17T07:39:19.169Z,4.95
2023-06-17T07:41:54.751Z,5.53
2023-06-17T07:44:33.094Z,4.75
2023-06-17T07:47:11.892Z,5.22
2023-06-17T07:49:49.570Z,5.43
2023-06-17T07:52:44.384Z,5.68
2023-06-17T07:55:19.208Z,5.07
2023-06-17T07:58:06.598Z,5.50
2023-06-17T08:00:54.524Z,5.88
2023-06-17T08:03:32.380Z,5.25
2023-06-17T08:06:06.520Z,5.95
2023-06-17T08:08:45.476Z,5.47
2023-06-17T08:11:26.634Z,5.47
2023-06-17T08:14:06.908Z,5.32
2023-06-17T08:16:58.118Z,5.65
2023-06-17T08:19:43.210Z,5.80
2023-06-17T08:22:33.920Z,5.10
2023-06-17T08:25:17.558Z,5.78
2023-06-17T08:27:50.443Z,5.03
2023-06-17T08:30:24.676Z,5.50
2023-06-17T08:32:58.259Z,5.32
2023-06-17T08:38:16.004Z,5.25
2023-06-17T08:40:57.368Z,5.30
2023-06-17T08:43:40.209Z,4.88
2023-06-17T08:46:21.692Z,4.95
2023-06-17T08:49:01.074Z,5.50
2023-06-17T08:51:37.300Z,6.03
2023-06-17T08:54:21.143Z,5.25
2023-06-17T08:56:58.894Z,5.50
2023-06-17T08:59:35.363Z,5.30
2023-06-17T09:02:15.395Z,5.28
2023-06-17T09:04:53.400Z,5.57
2023-06-17T09:07:31.865Z,5.40
2023-06-17T09:10:17.747Z,4.80
2023-06-17T09:13:04.873Z,5.28
2023-06-17T09:15:48.119Z,4.72
2023-06-17T09:18:19.925Z,5.15
2023-06-17T09:21:01.442Z,5.15
2023-06-17T09:23:41.968Z,5.25
2023-06-17T09:26:14.916Z,5.88
2023-06-17T09:28:56.369Z,4.97
2023-06-17T09:31:26.362Z,5.22
2023-06-17T09:34:08.739Z,4.80
2023-06-17T09:36:43.885Z,4.85
2023-06-17T09:39:24.012Z,5.13
2023-06-17T09:42:00.710Z,5.30
2023-06-17T09:44:42.161Z,5.00
2023-06-17T09:47:46.717Z,7.18
2023-06-17T09:50:33.880Z,5.35
2023-06-17T09:53:06.492Z,4.93
2023-06-17T09:55:41.896Z,5.40
2023-06-17T09:58:19.246Z,5.25
2023-06-17T10:01:02.964Z,5.72
2023-06-17T10:03:39.013Z,4.65
2023-06-17T10:06:14.120Z,4.47
2023-06-17T10:08:56.261Z,5.50
2023-06-17T10:11:38.834Z,5.72
2023-06-17T10:14:27.314Z,4.50
2023-06-17T10:17:09.230Z,4.65
2023-06-17T10:19:48.153Z,4.80
2023-06-17T10:22:28.195Z,4.65
2023-06-17T10:25:12.901Z,4.65
2023-06-17T10:27:58.956Z,5.47
2023-06-17T10:30:37.718Z,4.38
2023-06-17T10:33:13.944Z,4.63
2023-06-17T10:35:54.412Z,4.45
2023-06-17T10:38:40.740Z,4.68
2023-06-17T10:41:28.454Z,4.68
2023-06-17T10:44:13.144Z,4.55
2023-06-17T10:46:52.890Z,4.85
2023-06-17T10:49:45.925Z,4.63
2023-06-17T10:52:26.866Z,4.63
2023-06-17T10:55:07.188Z,5.35
2023-06-17T11:00:36.039Z,4.47
2023-06-17T11:03:18.181Z,4.60
2023-06-17T11:05:55.320Z,4.82
2023-06-17T11:08:30.346Z,4.60
2023-06-17T11:11:19.602Z,4.65
2023-06-17T11:13:59.293Z,4.70
2023-06-17T11:16:57.470Z,4.13
2023-06-17T11:19:38.894Z,4.60
2023-06-17T11:22:30.114Z,5.38
2023-06-17T11:25:17.964Z,4.95
2023-06-17T11:27:51.510Z,4.60
2023-06-17T11:30:30.195Z,5.63
2023-06-17T11:33:06.133Z,4.70
2023-06-17T11:35:53.418Z,4.82
2023-06-17T11:38:29.476Z,5.03
2023-06-17T11:41:17.960Z,5.07
2023-06-17T11:43:53.221Z,4.88
2023-06-17T11:46:31.684Z,5.10
2023-06-17T11:49:28.421Z,5.22
2023-06-17T11:52:17.825Z,5.00
2023-06-17T11:54:56.655Z,5.13
2023-06-17T11:57:31.892Z,5.20
2023-06-17T12:00:21.489Z,4.63
2023-06-17T12:03:06.747Z,5.47
2023-06-17T12:05:58.311Z,4.72
2023-06-17T12:08:36.368Z,4.70
2023-06-17T12:11:38.357Z,4.68
2023-06-17T12:14:21.543Z,4.50
2023-06-17T12:16:58.231Z,4.78
2023-06-17T12:19:39.034Z,5.00
2023-06-17T12:22:22.936Z,5.65
2023-06-17T12:25:10.536Z,5.60
2023-06-17T12:27:56.895Z,5.70
2023-06-17T12:30:28.521Z,4.35
2023-06-17T12:33:01.823Z,5.13
2023-06-17T12:35:42.778Z,4.30
2023-06-17T12:38:15.773Z,4.95
2023-06-17T12:40:58.327Z,4.88
2023-06-17T12:46:41.263Z,4.65
2023-06-17T12:49:20.340Z,5.10
2023-06-17T12:52:00.187Z,4.57
2023-06-17T12:54:31.892Z,5.05
2023-06-17T12:57:08.190Z,4.90
2023-06-17T12:59:53.502Z,5.13
2023-06-17T13:02:32.701Z,4.32
2023-06-17T13:05:12.073Z,3.70
2023-06-17T13:07:51.279Z,4.60
2023-06-17T13:10:32.419Z,4.25
2023-06-17T13:13:14.722Z,5.07
2023-06-17T13:16:00.184Z,4.38
2023-06-17T13:18:38.317Z,4.45
2023-06-17T13:21:24.909Z,4.22
2023-06-17T13:23:57.225Z,4.05
2023-06-17T13:26:33.424Z,4.20
2023-06-17T13:29:14.822Z,4.32
2023-06-17T13:32:06.287Z,4.57
2023-06-17T13:34:47.848Z,4.65
2023-06-17T13:37:34.469Z,4.07
2023-06-17T13:40:14.541Z,4.90
2023-06-17T13:42:53.466Z,4.75
2023-06-17T13:48:20.714Z,4.63
2023-06-17T13:51:00.761Z,4.55
2023-06-17T13:53:35.524Z,4.68
2023-06-17T13:56:11.793Z,4.43
2023-06-17T13:58:57.012Z,4.15
2023-06-17T14:01:30.660Z,4.80
2023-06-17T14:04:12.169Z,4.55
2023-06-17T14:06:48.119Z,5.00
2023-06-17T14:09:18.060Z,4.47
2023-06-17T14:11:51.865Z,4.32
2023-06-17T14:14:29.898Z,4.53
2023-06-17T14:17:18.105Z,4.32
2023-06-17T14:20:02.157Z,3.92
2023-06-17T14:22:51.350Z,4.43
2023-06-17T14:25:36.552Z,4.10
2023-06-17T14:28:11.830Z,4.25
2023-06-17T14:30:43.174Z,4.03
2023-06-17T14:33:16.814Z,4.35
2023-06-17T14:36:02.744Z,4.80
2023-06-17T14:38:44.125Z,4.25
2023-06-17T14:41:18.713Z,4.10
2023-06-17T14:44:02.620Z,4.40
2023-06-17T14:46:42.167Z,4.10
2023-06-17T14:49:25.397Z,4.68
2023-06-17T14:52:20.127Z,4.40
2023-06-17T14:55:01.811Z,4.15
2023-06-17T14:57:35.650Z,4.15
2023-06-17T15:00:40.107Z,4.18
2023-06-17T15:03:12.776Z,5.32
2023-06-17T15:05:58.717Z,4.47
2023-06-17T15:08:35.227Z,3.78
2023-06-17T15:11:12.217Z,4.43
2023-06-17T15:14:07.953Z,4.63
2023-06-17T15:16:39.751Z,4.65
2023-06-17T15:19:26.204Z,4.60
2023-06-17T15:22:04.041Z,4.68
2023-06-17T15:24:49.722Z,4.63
2023-06-17T15:27:23.771Z,4.72
2023-06-17T15:29:59.759Z,4.75
2023-06-17T15:32:36.393Z,4.75
2023-06-17T15:35:14.526Z,4.20
2023-06-17T15:38:03.023Z,4.78
2023-06-17T15:40:50.441Z,4.32
2023-06-17T15:43:28.804Z,4.05
2023-06-17T15:46:11.510Z,4.40
2023-06-17T15:48:49.315Z,4.53
2023-06-17T15:51:24.674Z,3.88
2023-06-17T15:54:04.034Z,4.68
2023-06-17T15:56:49.796Z,4.20
2023-06-17T15:59:25.110Z,5.82
2023-06-17T16:02:07.607Z,4.68
2023-06-17T16:04:58.899Z,4.22
2023-06-17T16:07:34.278Z,4.10
2023-06-17T16:10:14.473Z,4.50
2023-06-17T16:13:10.626Z,4.60
2023-06-17T16:15:52.285Z,4.40
2023-06-17T16:18:35.344Z,4.55
2023-06-17T16:21:09.331Z,4.35
2023-06-17T16:23:49.570Z,4.38
2023-06-17T16:26:23.138Z,4.70
2023-06-17T16:28:58.566Z,4.10
2023-06-17T16:31:38.282Z,4.35
2023-06-17T16:34:09.680Z,4.13
2023-06-17T16:36:46.299Z,4.80
2023-06-17T16:39:19.144Z,8.80
2023-06-17T16:41:58.624Z,4.40
2023-06-17T16:44:40.029Z,4.40
2023-06-17T16:47:26.125Z,4.85
2023-06-17T16:50:04.623Z,4.25
2023-06-17T16:52:36.560Z,4.40
2023-06-17T16:55:14.939Z,4.82
2023-06-17T16:57:57.230Z,4.70
2023-06-17T17:00:39.253Z,5.15
2023-06-17T17:03:16.225Z,4.65
2023-06-17T17:05:50.348Z,4.97
2023-06-17T17:08:21.030Z,4.93
2023-06-17T17:10:56.816Z,5.50
2023-06-17T17:13:47.829Z,5.75
2023-06-17T17:16:23.646Z,6.35
2023-06-17T17:19:08.426Z,5.63
2023-06-17T17:21:49.653Z,6.30
2023-06-17T17:24:26.624Z,5.47
2023-06-17T17:27:08.523Z,6.00
2023-06-17T17:29:53.865Z,6.00
2023-06-17T17:32:43.965Z,6.22
2023-06-17T17:35:23.027Z,7.03
2023-06-17T17:37:55.075Z,6.40
2023-06-17T17:40:44.135Z,6.53
2023-06-17T17:43:16.584Z,6.40
2023-06-17T17:45:55.294Z,6.70
2023-06-17T17:48:38.922Z,7.00
2023-06-17T17:51:10.464Z,6.63
2023-06-17T17:53:52.431Z,7.03
2023-06-17T17:56:31.992Z,6.82
2023-06-17T17:59:13.574Z,8.70
2023-06-17T18:01:44.685Z,10.57
2023-06-17T18:04:24.528Z,8.60
2023-06-17T18:07:00.411Z,9.65
2023-06-17T18:09:36.896Z,14.40
2023-06-17T18:12:15.339Z,11.10
2023-06-17T18:17:35.724Z,10.15
2023-06-17T18:20:17.280Z,8.80
2023-06-17T18:22:54.863Z,8.38
2023-06-17T18:25:29.234Z,8.18
2023-06-17T18:28:11.797Z,7.22
2023-06-17T18:30:48.863Z,7.75
2023-06-17T18:33:26.622Z,8.15
2023-06-17T18:36:02.298Z,7.60
2023-06-17T18:38:45.642Z,8.07
2023-06-17T18:41:18.325Z,8.98
2023-06-17T18:43:59.089Z,9.98
2023-06-17T18:46:42.935Z,10.80
2023-06-17T18:49:28.200Z,10.25
2023-06-17T18:52:04.450Z,9.75
2023-06-17T18:54:40.703Z,8.95
2023-06-17T18:57:18.825Z,9.05
2023-06-17T19:00:00.308Z,9.23
2023-06-17T19:02:35.451Z,9.30
2023-06-17T19:07:50.610Z,9.13
2023-06-17T19:10:34.012Z,9.88
2023-06-17T19:13:13.591Z,10.18
2023-06-17T19:15:56.680Z,9.93
2023-06-17T19:18:34.848Z,10.05
2023-06-17T19:21:13.264Z,10.32
2023-06-17T19:23:59.262Z,9.65
2023-06-17T19:26:31.534Z,9.50
2023-06-17T19:31:44.446Z,9.40
2023-06-17T19:34:21.310Z,9.02
2023-06-17T19:36:58.598Z,9.65
2023-06-17T19:39:39.155Z,10.57
2023-06-17T19:42:20.074Z,9.80
2023-06-17T19:45:02.207Z,9.90
2023-06-17T19:47:40.586Z,9.80
2023-06-17T19:50:23.508Z,8.88
2023-06-17T19:53:03.888Z,9.32
2023-06-17T19:55:47.462Z,10.38
2023-06-17T19:58:19.905Z,9.57
2023-06-17T20:01:01.830Z,10.10
2023-06-17T20:03:46.258Z,10.23
2023-06-17T20:06:26.723Z,10.48
2023-06-17T20:09:09.825Z,8.90
2023-06-17T20:11:49.329Z,8.77
2023-06-17T20:14:33.572Z,8.82
2023-06-17T20:17:05.416Z,12.45
2023-06-17T20:19:38.320Z,11.73
2023-06-17T20:22:23.915Z,10.02
2023-06-17T20:24:55.522Z,9.00
2023-06-17T20:27:34.274Z,8.90
2023-06-17T20:30:16.644Z,8.85
2023-06-17T20:32:56.686Z,8.38
2023-06-17T20:35:35.582Z,7.43
2023-06-17T20:38:14.976Z,8.00
2023-06-17T20:40:56.532Z,7.68
2023-06-17T20:43:36.714Z,8.02
2023-06-17T20:46:16.296Z,7.00
2023-06-17T20:48:56.017Z,7.72
2023-06-17T20:51:31.363Z,8.32
2023-06-17T20:54:16.921Z,7.18
2023-06-17T20:56:58.674Z,6.80
2023-06-17T20:59:42.493Z,7.15
2023-06-17T21:02:23.901Z,7.80
2023-06-17T21:05:01.224Z,7.97
2023-06-17T21:07:41.426Z,10.25
2023-06-17T21:10:21.188Z,9.35
2023-06-17T21:12:55.943Z,8.20
2023-06-17T21:15:40.105Z,8.52
2023-06-17T21:18:17.285Z,7.95
2023-06-17T21:20:56.363Z,8.07
2023-06-17T21:23:30.540Z,7.15
2023-06-17T21:26:10.761Z,8.10
2023-06-17T21:28:49.091Z,7.28
2023-06-17T21:31:33.080Z,7.13
2023-06-17T21:34:20.593Z,7.20
2023-06-17T21:36:52.209Z,7.43
2023-06-17T21:39:28.601Z,7.05
2023-06-17T21:42:08.442Z,7.72
2023-06-17T21:44:49.771Z,8.30
2023-06-17T21:47:24.282Z,7.93
2023-06-17T21:50:13.309Z,7.35
2023-06-17T21:52:47.848Z,7.07
2023-06-17T21:55:29.361Z,7.65
2023-06-17T21:58:03.796Z,7.72
2023-06-17T22:00:45.705Z,7.20
2023-06-17T22:03:34.845Z,6.63
2023-06-17T22:06:15.342Z,7.40
2023-06-17T22:08:57.929Z,6.93
2023-06-17T22:11:33.631Z,7.25
2023-06-17T22:14:16.236Z,7.00
2023-06-17T22:16:58.200Z,7.40
2023-06-17T22:19:40.236Z,7.13
2023-06-17T22:22:15.521Z,6.53
2023-06-17T22:24:48.072Z,7.05
2023-06-17T22:27:25.029Z,7.65
2023-06-17T22:29:59.712Z,7.03
2023-06-17T22:32:42.552Z,7.15
2023-06-17T22:35:16.292Z,7.00
2023-06-17T22:37:52.427Z,7.20
2023-06-17T22:40:28.279Z,7.15
2023-06-17T22:43:05.579Z,8.25
2023-06-17T22:45:52.635Z,6.35
2023-06-17T22:48:33.671Z,7.72
2023-06-17T22:51:30.045Z,6.40
2023-06-17T22:54:04.217Z,6.68
2023-06-17T22:56:41.915Z,6.70
2023-06-17T22:59:24.169Z,6.75
2023-06-17T23:02:08.428Z,6.80
2023-06-17T23:04:48.322Z,7.05
2023-06-17T23:07:30.405Z,7.32
2023-06-17T23:10:18.881Z,7.43
2023-06-17T23:12:57.686Z,7.03
2023-06-17T23:15:36.564Z,7.38
2023-06-17T23:18:29.690Z,7.20
2023-06-17T23:21:00.585Z,7.97
2023-06-17T23:23:40.209Z,7.25
2023-06-17T23:26:21.433Z,7.85
2023-06-17T23:29:01.955Z,8.27
2023-06-17T23:31:46.265Z,8.45
2023-06-17T23:34:17.288Z,8.43
2023-06-17T23:36:49.919Z,7.70
2023-06-17T23:39:35.342Z,8.60
2023-06-17T23:42:10.685Z,7.18
2023-06-17T23:44:56.838Z,7.78
2023-06-17T23:47:41.258Z,7.10
2023-06-17T23:52:59.021Z,7.32
2023-06-17T23:55:37.989Z,7.78
2023-06-17T23:58:17.633Z,7.20
